Acadiana Regional Airport
KARA : now visible

Airfield :











YOU CAN JOIN US ON...

 
LOGIN :

Register | Disclaimer

   EN    FR    IT 

 









Legend :    VFR   Marginal VFR   IFR   Intensive IFR   Very Intensive IFR
Visi :
Ceiling :
>= 8 km
>= 3000ft
5 to 8 km
1000 to 3000 ft
1500m to 5 km
500 to 1000 ft
800 to 1500m
200 to 500 ft
< 800m
< 200 ft
Symbols :   Thunderstorms  Fog  Heavy snow  Heavy precipitations  Wind > 20 kt






- Airport Elevation : 24 ft


KARA - Acadiana Regional

CURRENT METAR :
  • 030653Z AUTO 00000KT 10SM CLR 26/24 A3000 RMK AO2 SLP158 T02560239

EXPIRED METARs :
  • 030553Z AUTO 00000KT 8SM CLR 26/24 A3000 RMK AO2 SLP159 T02560244 10289 20256 403110244 50009
  • 030453Z AUTO 11004KT 10SM SCT024 SCT032 26/24 A3001 RMK AO2 SLP160 T02610244

TAF KARA
Valid from the 03 at 06:00 until the 04 at 06:00 UTC


030520Z 0306/0406 VRB05KT P6SM SCT250
FM031700 20010KT P6SM VCSH SCT035 BKN150
FM040200 VRB05KT P6SM FEW050 BKN200
KZHU FIR / North America



MET'MAP, your aeronautical weather chart ! - Copyright ORBIFLY December 2007 - Disclaimer

ORBIFLY MET'MAP TEAM :

Programming & Development : Alexandra Zaïnal
Original concept : Baudouin d'Aumeries
Technical & hardware support : Manuel Goepfert
Assistance : Marc-Olivier Méhu




SOURCES & CREDITS :

   NOAA       Earth
Advisory